sensor_id;sensor_type;location;lat;lon;timestamp;temperature;humidity
23259;DHT22;11798;51.528;7.240;2022-09-01T00:02:22;17.50;99.90
23259;DHT22;11798;51.528;7.240;2022-09-01T00:04:51;17.40;99.90
23259;DHT22;11798;51.528;7.240;2022-09-01T00:07:20;17.40;99.90
23259;DHT22;11798;51.528;7.240;2022-09-01T00:09:45;17.40;99.90
23259;DHT22;11798;51.528;7.240;2022-09-01T00:12:11;17.40;99.90
23259;DHT22;11798;51.528;7.240;2022-09-01T00:14:37;17.50;99.90
23259;DHT22;11798;51.528;7.240;2022-09-01T00:17:07;17.50;99.90
23259;DHT22;11798;51.528;7.240;2022-09-01T00:19:32;17.50;99.90
23259;DHT22;11798;51.528;7.240;2022-09-01T00:21:59;17.40;99.90
23259;DHT22;11798;51.528;7.240;2022-09-01T00:24:25;17.40;99.90
23259;DHT22;11798;51.528;7.240;2022-09-01T00:26:50;17.40;99.90
23259;DHT22;11798;51.528;7.240;2022-09-01T00:29:16;17.40;99.90
23259;DHT22;11798;51.528;7.240;2022-09-01T00:31:42;17.40;99.90
23259;DHT22;11798;51.528;7.240;2022-09-01T00:34:07;17.40;99.90
23259;DHT22;11798;51.528;7.240;2022-09-01T00:36:33;17.30;99.90
23259;DHT22;11798;51.528;7.240;2022-09-01T00:38:58;17.30;99.90
23259;DHT22;11798;51.528;7.240;2022-09-01T00:41:25;17.20;99.90
23259;DHT22;11798;51.528;7.240;2022-09-01T00:43:52;17.20;99.90
23259;DHT22;11798;51.528;7.240;2022-09-01T00:46:19;17.20;99.90
23259;DHT22;11798;51.528;7.240;2022-09-01T00:48:46;17.20;99.90
23259;DHT22;11798;51.528;7.240;2022-09-01T00:51:12;17.20;99.90
23259;DHT22;11798;51.528;7.240;2022-09-01T00:53:38;17.10;99.90
23259;DHT22;11798;51.528;7.240;2022-09-01T00:56:05;17.10;99.90
23259;DHT22;11798;51.528;7.240;2022-09-01T00:58:32;17.10;99.90
23259;DHT22;11798;51.528;7.240;2022-09-01T01:00:58;17.00;99.90
23259;DHT22;11798;51.528;7.240;2022-09-01T01:03:24;16.90;99.90
23259;DHT22;11798;51.528;7.240;2022-09-01T01:05:50;16.90;99.90
23259;DHT22;11798;51.528;7.240;2022-09-01T01:08:22;17.00;99.90
23259;DHT22;11798;51.528;7.240;2022-09-01T01:10:55;16.90;99.90
23259;DHT22;11798;51.528;7.240;2022-09-01T01:13:21;16.90;99.90
23259;DHT22;11798;51.528;7.240;2022-09-01T01:15:50;16.90;99.90
23259;DHT22;11798;51.528;7.240;2022-09-01T01:18:15;16.80;99.90
23259;DHT22;11798;51.528;7.240;2022-09-01T01:20:41;16.70;99.90
23259;DHT22;11798;51.528;7.240;2022-09-01T01:25:52;16.70;99.90
23259;DHT22;11798;51.528;7.240;2022-09-01T01:28:22;16.50;99.90
23259;DHT22;11798;51.528;7.240;2022-09-01T01:30:56;16.50;99.90
23259;DHT22;11798;51.528;7.240;2022-09-01T01:33:28;16.40;99.90
23259;DHT22;11798;51.528;7.240;2022-09-01T01:35:54;16.30;99.90
23259;DHT22;11798;51.528;7.240;2022-09-01T01:38:22;16.30;99.90
23259;DHT22;11798;51.528;7.240;2022-09-01T01:40:47;16.30;99.90
23259;DHT22;11798;51.528;7.240;2022-09-01T01:43:13;16.30;99.90
23259;DHT22;11798;51.528;7.240;2022-09-01T01:45:44;16.20;99.90
23259;DHT22;11798;51.528;7.240;2022-09-01T01:48:11;16.20;99.90
23259;DHT22;11798;51.528;7.240;2022-09-01T01:50:36;16.20;99.90
23259;DHT22;11798;51.528;7.240;2022-09-01T01:53:03;16.10;99.90
23259;DHT22;11798;51.528;7.240;2022-09-01T01:55:29;16.00;99.90
23259;DHT22;11798;51.528;7.240;2022-09-01T01:57:55;16.00;99.90
23259;DHT22;11798;51.528;7.240;2022-09-01T02:00:23;16.00;99.90
23259;DHT22;11798;51.528;7.240;2022-09-01T02:02:49;16.00;99.90
23259;DHT22;11798;51.528;7.240;2022-09-01T02:05:21;15.90;99.90
23259;DHT22;11798;51.528;7.240;2022-09-01T02:07:53;15.90;99.90
23259;DHT22;11798;51.528;7.240;2022-09-01T02:10:21;15.80;99.90
23259;DHT22;11798;51.528;7.240;2022-09-01T02:12:46;15.80;99.90
23259;DHT22;11798;51.528;7.240;2022-09-01T02:15:13;15.70;99.90
23259;DHT22;11798;51.528;7.240;2022-09-01T02:17:40;15.70;99.90
23259;DHT22;11798;51.528;7.240;2022-09-01T02:20:07;15.60;99.90
23259;DHT22;11798;51.528;7.240;2022-09-01T02:22:33;15.50;99.90
23259;DHT22;11798;51.528;7.240;2022-09-01T02:24:58;15.50;99.90
23259;DHT22;11798;51.528;7.240;2022-09-01T02:27:25;15.50;99.90
23259;DHT22;11798;51.528;7.240;2022-09-01T02:29:51;15.50;99.90
23259;DHT22;11798;51.528;7.240;2022-09-01T02:32:20;15.40;99.90
23259;DHT22;11798;51.528;7.240;2022-09-01T02:34:49;15.40;99.90
23259;DHT22;11798;51.528;7.240;2022-09-01T02:37:21;15.40;99.90
23259;DHT22;11798;51.528;7.240;2022-09-01T02:39:50;15.40;99.90
23259;DHT22;11798;51.528;7.240;2022-09-01T02:42:16;15.40;99.90
23259;DHT22;11798;51.528;7.240;2022-09-01T02:44:41;15.30;99.90
23259;DHT22;11798;51.528;7.240;2022-09-01T02:47:08;15.30;99.90
23259;DHT22;11798;51.528;7.240;2022-09-01T02:49:34;15.30;99.90
23259;DHT22;11798;51.528;7.240;2022-09-01T02:52:00;15.20;99.90
23259;DHT22;11798;51.528;7.240;2022-09-01T02:54:27;15.20;99.90
23259;DHT22;11798;51.528;7.240;2022-09-01T02:56:55;15.30;99.90
23259;DHT22;11798;51.528;7.240;2022-09-01T02:59:21;15.20;99.90
23259;DHT22;11798;51.528;7.240;2022-09-01T03:01:51;15.20;99.90
23259;DHT22;11798;51.528;7.240;2022-09-01T03:04:16;15.20;99.90
23259;DHT22;11798;51.528;7.240;2022-09-01T03:06:42;15.20;99.90
23259;DHT22;11798;51.528;7.240;2022-09-01T03:09:09;15.10;99.90
23259;DHT22;11798;51.528;7.240;2022-09-01T03:11:35;15.10;99.90
23259;DHT22;11798;51.528;7.240;2022-09-01T03:14:01;15.00;99.90
23259;DHT22;11798;51.528;7.240;2022-09-01T03:16:27;15.00;99.90
23259;DHT22;11798;51.528;7.240;2022-09-01T03:18:55;15.00;99.90
23259;DHT22;11798;51.528;7.240;2022-09-01T03:21:21;15.00;99.90
23259;DHT22;11798;51.528;7.240;2022-09-01T03:23:48;15.00;99.90
23259;DHT22;11798;51.528;7.240;2022-09-01T03:26:14;14.90;99.90
23259;DHT22;11798;51.528;7.240;2022-09-01T03:28:42;14.90;99.90
23259;DHT22;11798;51.528;7.240;2022-09-01T03:31:08;14.90;99.90
23259;DHT22;11798;51.528;7.240;2022-09-01T03:33:34;14.90;99.90
23259;DHT22;11798;51.528;7.240;2022-09-01T03:36:00;14.90;99.90
23259;DHT22;11798;51.528;7.240;2022-09-01T03:38:26;14.90;99.90
23259;DHT22;11798;51.528;7.240;2022-09-01T03:41:04;14.90;99.90
23259;DHT22;11798;51.528;7.240;2022-09-01T03:43:31;14.80;99.90
23259;DHT22;11798;51.528;7.240;2022-09-01T03:45:57;14.80;99.90
23259;DHT22;11798;51.528;7.240;2022-09-01T03:48:30;14.70;99.90
23259;DHT22;11798;51.528;7.240;2022-09-01T03:50:56;14.70;99.90
23259;DHT22;11798;51.528;7.240;2022-09-01T03:53:27;14.60;99.90
23259;DHT22;11798;51.528;7.240;2022-09-01T03:55:53;14.60;99.90
23259;DHT22;11798;51.528;7.240;2022-09-01T03:58:22;14.60;99.90
23259;DHT22;11798;51.528;7.240;2022-09-01T04:00:52;14.60;99.90
23259;DHT22;11798;51.528;7.240;2022-09-01T04:03:20;14.60;99.90
23259;DHT22;11798;51.528;7.240;2022-09-01T04:05:47;14.60;99.90
23259;DHT22;11798;51.528;7.240;2022-09-01T04:08:13;14.60;99.90
23259;DHT22;11798;51.528;7.240;2022-09-01T04:10:50;14.60;99.90
23259;DHT22;11798;51.528;7.240;2022-09-01T04:13:20;14.60;99.90
23259;DHT22;11798;51.528;7.240;2022-09-01T04:15:46;14.60;99.90
23259;DHT22;11798;51.528;7.240;2022-09-01T04:18:12;14.50;99.90
23259;DHT22;11798;51.528;7.240;2022-09-01T04:20:45;14.50;99.90
23259;DHT22;11798;51.528;7.240;2022-09-01T04:23:22;14.50;99.90
23259;DHT22;11798;51.528;7.240;2022-09-01T04:25:58;14.50;99.90
23259;DHT22;11798;51.528;7.240;2022-09-01T04:28:25;14.40;99.90
23259;DHT22;11798;51.528;7.240;2022-09-01T04:30:55;14.40;99.90
23259;DHT22;11798;51.528;7.240;2022-09-01T04:33:21;14.30;99.90
23259;DHT22;11798;51.528;7.240;2022-09-01T04:35:48;14.30;99.90
23259;DHT22;11798;51.528;7.240;2022-09-01T04:38:15;14.30;99.90
23259;DHT22;11798;51.528;7.240;2022-09-01T04:40:41;14.30;99.90
23259;DHT22;11798;51.528;7.240;2022-09-01T04:43:06;14.30;99.90
23259;DHT22;11798;51.528;7.240;2022-09-01T04:45:33;14.30;99.90
23259;DHT22;11798;51.528;7.240;2022-09-01T04:48:03;14.40;99.90
23259;DHT22;11798;51.528;7.240;2022-09-01T04:50:29;14.40;99.90
23259;DHT22;11798;51.528;7.240;2022-09-01T04:52:57;14.30;99.90
23259;DHT22;11798;51.528;7.240;2022-09-01T04:55:25;14.30;99.90
23259;DHT22;11798;51.528;7.240;2022-09-01T04:57:54;14.30;99.90
23259;DHT22;11798;51.528;7.240;2022-09-01T05:00:22;14.30;99.90
23259;DHT22;11798;51.528;7.240;2022-09-01T05:02:49;14.40;99.90
23259;DHT22;11798;51.528;7.240;2022-09-01T05:05:17;14.40;99.90
23259;DHT22;11798;51.528;7.240;2022-09-01T05:07:42;14.40;99.90
23259;DHT22;11798;51.528;7.240;2022-09-01T05:10:08;14.40;99.90
23259;DHT22;11798;51.528;7.240;2022-09-01T05:12:33;14.40;99.90
23259;DHT22;11798;51.528;7.240;2022-09-01T05:15:00;14.40;99.90
23259;DHT22;11798;51.528;7.240;2022-09-01T05:17:30;14.40;99.90
23259;DHT22;11798;51.528;7.240;2022-09-01T05:19:56;14.40;99.90
23259;DHT22;11798;51.528;7.240;2022-09-01T05:22:22;14.30;99.90
23259;DHT22;11798;51.528;7.240;2022-09-01T05:24:48;14.30;99.90
23259;DHT22;11798;51.528;7.240;2022-09-01T05:27:16;14.30;99.90
23259;DHT22;11798;51.528;7.240;2022-09-01T05:29:43;14.30;99.90
23259;DHT22;11798;51.528;7.240;2022-09-01T05:32:10;14.40;99.90
23259;DHT22;11798;51.528;7.240;2022-09-01T05:34:36;14.40;99.90
23259;DHT22;11798;51.528;7.240;2022-09-01T05:37:04;14.40;99.90
23259;DHT22;11798;51.528;7.240;2022-09-01T05:39:30;14.40;99.90
23259;DHT22;11798;51.528;7.240;2022-09-01T05:41:59;14.40;99.90
23259;DHT22;11798;51.528;7.240;2022-09-01T05:44:26;14.50;99.90
23259;DHT22;11798;51.528;7.240;2022-09-01T05:46:51;14.50;99.90
23259;DHT22;11798;51.528;7.240;2022-09-01T05:49:17;14.50;99.90
23259;DHT22;11798;51.528;7.240;2022-09-01T05:51:44;14.50;99.90
23259;DHT22;11798;51.528;7.240;2022-09-01T05:54:14;14.50;99.90
23259;DHT22;11798;51.528;7.240;2022-09-01T05:56:41;14.50;99.90
23259;DHT22;11798;51.528;7.240;2022-09-01T05:59:07;14.50;99.90
23259;DHT22;11798;51.528;7.240;2022-09-01T06:01:34;14.60;99.90
23259;DHT22;11798;51.528;7.240;2022-09-01T06:04:03;14.60;99.90
23259;DHT22;11798;51.528;7.240;2022-09-01T06:06:35;14.60;99.90
23259;DHT22;11798;51.528;7.240;2022-09-01T06:09:03;14.70;99.90
23259;DHT22;11798;51.528;7.240;2022-09-01T06:11:29;14.80;99.90
23259;DHT22;11798;51.528;7.240;2022-09-01T06:13:57;14.80;99.90
23259;DHT22;11798;51.528;7.240;2022-09-01T06:16:23;14.90;99.90
23259;DHT22;11798;51.528;7.240;2022-09-01T06:18:49;14.90;99.90
23259;DHT22;11798;51.528;7.240;2022-09-01T06:21:16;15.00;99.90
23259;DHT22;11798;51.528;7.240;2022-09-01T06:23:43;15.10;99.90
23259;DHT22;11798;51.528;7.240;2022-09-01T06:26:22;15.10;99.90
23259;DHT22;11798;51.528;7.240;2022-09-01T06:28:51;15.20;99.90
23259;DHT22;11798;51.528;7.240;2022-09-01T06:31:22;15.30;99.90
23259;DHT22;11798;51.528;7.240;2022-09-01T06:33:52;15.30;99.90
23259;DHT22;11798;51.528;7.240;2022-09-01T06:36:19;15.40;99.90
23259;DHT22;11798;51.528;7.240;2022-09-01T06:38:45;15.40;99.90
23259;DHT22;11798;51.528;7.240;2022-09-01T06:41:11;15.50;99.90
23259;DHT22;11798;51.528;7.240;2022-09-01T06:43:40;15.60;99.90
23259;DHT22;11798;51.528;7.240;2022-09-01T06:46:06;15.70;99.90
23259;DHT22;11798;51.528;7.240;2022-09-01T06:48:36;15.80;99.90
23259;DHT22;11798;51.528;7.240;2022-09-01T06:51:04;15.90;99.90
23259;DHT22;11798;51.528;7.240;2022-09-01T06:53:30;15.90;99.90
23259;DHT22;11798;51.528;7.240;2022-09-01T06:55:56;15.90;99.90
23259;DHT22;11798;51.528;7.240;2022-09-01T06:58:21;16.00;99.90
23259;DHT22;11798;51.528;7.240;2022-09-01T07:00:47;16.00;99.90
23259;DHT22;11798;51.528;7.240;2022-09-01T07:03:14;16.10;99.90
23259;DHT22;11798;51.528;7.240;2022-09-01T07:05:40;16.20;99.90
23259;DHT22;11798;51.528;7.240;2022-09-01T07:08:07;16.30;99.90
23259;DHT22;11798;51.528;7.240;2022-09-01T07:10:42;16.30;99.90
23259;DHT22;11798;51.528;7.240;2022-09-01T07:13:14;16.30;99.90
23259;DHT22;11798;51.528;7.240;2022-09-01T07:15:47;16.40;99.90
23259;DHT22;11798;51.528;7.240;2022-09-01T07:18:18;16.50;99.90
23259;DHT22;11798;51.528;7.240;2022-09-01T07:20:46;16.50;99.90
23259;DHT22;11798;51.528;7.240;2022-09-01T07:23:16;16.60;99.90
23259;DHT22;11798;51.528;7.240;2022-09-01T07:25:43;16.70;99.90
23259;DHT22;11798;51.528;7.240;2022-09-01T07:28:09;16.70;99.90
23259;DHT22;11798;51.528;7.240;2022-09-01T07:30:43;16.80;99.90
23259;DHT22;11798;51.528;7.240;2022-09-01T07:33:10;16.90;99.90
23259;DHT22;11798;51.528;7.240;2022-09-01T07:35:38;16.90;99.90
23259;DHT22;11798;51.528;7.240;2022-09-01T07:38:04;17.00;99.90
23259;DHT22;11798;51.528;7.240;2022-09-01T07:40:32;17.10;99.90
23259;DHT22;11798;51.528;7.240;2022-09-01T07:43:00;17.10;99.90
23259;DHT22;11798;51.528;7.240;2022-09-01T07:45:29;17.20;99.90
23259;DHT22;11798;51.528;7.240;2022-09-01T07:47:55;17.30;99.90
23259;DHT22;11798;51.528;7.240;2022-09-01T07:50:21;17.30;99.90
23259;DHT22;11798;51.528;7.240;2022-09-01T07:52:48;17.40;99.90
23259;DHT22;11798;51.528;7.240;2022-09-01T07:55:15;17.50;99.90
23259;DHT22;11798;51.528;7.240;2022-09-01T07:57:41;17.50;99.90
23259;DHT22;11798;51.528;7.240;2022-09-01T08:00:08;17.60;99.90
23259;DHT22;11798;51.528;7.240;2022-09-01T08:02:34;17.70;99.90
23259;DHT22;11798;51.528;7.240;2022-09-01T08:05:00;17.80;99.90
23259;DHT22;11798;51.528;7.240;2022-09-01T08:07:26;17.90;99.90
23259;DHT22;11798;51.528;7.240;2022-09-01T08:09:51;18.00;99.90
23259;DHT22;11798;51.528;7.240;2022-09-01T08:12:17;18.10;99.90
23259;DHT22;11798;51.528;7.240;2022-09-01T08:14:42;18.20;99.90
23259;DHT22;11798;51.528;7.240;2022-09-01T08:17:08;18.20;99.90
23259;DHT22;11798;51.528;7.240;2022-09-01T08:19:34;18.40;99.90
23259;DHT22;11798;51.528;7.240;2022-09-01T08:22:00;18.40;99.90
23259;DHT22;11798;51.528;7.240;2022-09-01T08:24:26;18.50;99.90
23259;DHT22;11798;51.528;7.240;2022-09-01T08:26:52;18.60;99.90
23259;DHT22;11798;51.528;7.240;2022-09-01T08:29:17;18.60;99.90
23259;DHT22;11798;51.528;7.240;2022-09-01T08:31:45;18.60;99.90
23259;DHT22;11798;51.528;7.240;2022-09-01T08:34:10;18.70;99.90
23259;DHT22;11798;51.528;7.240;2022-09-01T08:36:37;18.80;99.90
23259;DHT22;11798;51.528;7.240;2022-09-01T08:39:02;18.90;99.90
23259;DHT22;11798;51.528;7.240;2022-09-01T08:44:15;19.00;99.90
23259;DHT22;11798;51.528;7.240;2022-09-01T08:46:42;19.10;99.90
23259;DHT22;11798;51.528;7.240;2022-09-01T08:49:11;19.20;99.90
23259;DHT22;11798;51.528;7.240;2022-09-01T08:51:41;19.30;99.90
23259;DHT22;11798;51.528;7.240;2022-09-01T08:54:17;19.40;99.90
23259;DHT22;11798;51.528;7.240;2022-09-01T08:56:46;19.50;99.90
23259;DHT22;11798;51.528;7.240;2022-09-01T08:59:15;19.60;99.90
23259;DHT22;11798;51.528;7.240;2022-09-01T09:01:42;19.70;99.90
23259;DHT22;11798;51.528;7.240;2022-09-01T09:09:50;19.90;99.90
23259;DHT22;11798;51.528;7.240;2022-09-01T09:12:21;20.00;99.90
23259;DHT22;11798;51.528;7.240;2022-09-01T09:14:54;20.10;99.90
23259;DHT22;11798;51.528;7.240;2022-09-01T09:17:26;20.20;99.90
23259;DHT22;11798;51.528;7.240;2022-09-01T09:19:53;20.30;99.90
23259;DHT22;11798;51.528;7.240;2022-09-01T09:22:19;20.30;99.90
23259;DHT22;11798;51.528;7.240;2022-09-01T09:24:49;20.40;99.90
23259;DHT22;11798;51.528;7.240;2022-09-01T09:29:41;20.60;99.90
23259;DHT22;11798;51.528;7.240;2022-09-01T09:32:08;20.70;99.90
23259;DHT22;11798;51.528;7.240;2022-09-01T09:37:15;20.70;99.90
23259;DHT22;11798;51.528;7.240;2022-09-01T09:39:41;20.80;99.90
23259;DHT22;11798;51.528;7.240;2022-09-01T09:42:11;20.90;99.90
23259;DHT22;11798;51.528;7.240;2022-09-01T09:44:44;21.10;99.90
23259;DHT22;11798;51.528;7.240;2022-09-01T09:50:17;21.20;99.90
23259;DHT22;11798;51.528;7.240;2022-09-01T09:52:44;21.10;99.90
23259;DHT22;11798;51.528;7.240;2022-09-01T09:57:42;21.20;99.90
23259;DHT22;11798;51.528;7.240;2022-09-01T10:02:41;21.40;99.90
23259;DHT22;11798;51.528;7.240;2022-09-01T10:07:51;21.50;99.90
23259;DHT22;11798;51.528;7.240;2022-09-01T10:12:49;21.70;99.90
23259;DHT22;11798;51.528;7.240;2022-09-01T10:15:15;21.60;99.90
23259;DHT22;11798;51.528;7.240;2022-09-01T10:17:43;21.60;99.90
23259;DHT22;11798;51.528;7.240;2022-09-01T10:20:14;21.70;99.90
23259;DHT22;11798;51.528;7.240;2022-09-01T10:22:41;21.90;99.90
23259;DHT22;11798;51.528;7.240;2022-09-01T10:25:08;21.90;99.90
23259;DHT22;11798;51.528;7.240;2022-09-01T10:27:39;22.00;99.90
23259;DHT22;11798;51.528;7.240;2022-09-01T10:32:42;22.20;99.90
23259;DHT22;11798;51.528;7.240;2022-09-01T10:37:49;22.10;99.90
23259;DHT22;11798;51.528;7.240;2022-09-01T10:42:48;22.20;99.90
23259;DHT22;11798;51.528;7.240;2022-09-01T10:45:29;22.30;99.90
23259;DHT22;11798;51.528;7.240;2022-09-01T10:47:56;22.40;99.90
23259;DHT22;11798;51.528;7.240;2022-09-01T10:50:41;22.40;99.90
23259;DHT22;11798;51.528;7.240;2022-09-01T10:53:07;22.30;99.90
23259;DHT22;11798;51.528;7.240;2022-09-01T10:55:33;22.20;99.90
23259;DHT22;11798;51.528;7.240;2022-09-01T10:58:12;22.30;99.90
23259;DHT22;11798;51.528;7.240;2022-09-01T11:00:44;22.30;99.90
23259;DHT22;11798;51.528;7.240;2022-09-01T11:11:09;22.30;99.90
23259;DHT22;11798;51.528;7.240;2022-09-01T11:18:48;22.70;99.90
23259;DHT22;11798;51.528;7.240;2022-09-01T11:21:16;22.80;99.90
23259;DHT22;11798;51.528;7.240;2022-09-01T11:23:47;22.90;99.90
23259;DHT22;11798;51.528;7.240;2022-09-01T11:28:57;23.10;99.90
23259;DHT22;11798;51.528;7.240;2022-09-01T11:31:28;23.10;99.90
23259;DHT22;11798;51.528;7.240;2022-09-01T11:39:05;22.90;99.90
23259;DHT22;11798;51.528;7.240;2022-09-01T11:41:33;23.00;99.90
23259;DHT22;11798;51.528;7.240;2022-09-01T11:44:00;23.20;99.90
23259;DHT22;11798;51.528;7.240;2022-09-01T11:48:52;23.30;99.90
23259;DHT22;11798;51.528;7.240;2022-09-01T11:51:18;23.30;99.90
23259;DHT22;11798;51.528;7.240;2022-09-01T11:53:45;23.30;99.90
23259;DHT22;11798;51.528;7.240;2022-09-01T11:56:15;23.00;99.90
23259;DHT22;11798;51.528;7.240;2022-09-01T11:58:41;23.20;99.90
23259;DHT22;11798;51.528;7.240;2022-09-01T12:01:15;23.30;99.90
23259;DHT22;11798;51.528;7.240;2022-09-01T12:03:41;23.30;99.90
23259;DHT22;11798;51.528;7.240;2022-09-01T12:06:08;23.40;99.90
23259;DHT22;11798;51.528;7.240;2022-09-01T12:08:35;23.30;99.90
23259;DHT22;11798;51.528;7.240;2022-09-01T12:11:06;23.40;99.90
23259;DHT22;11798;51.528;7.240;2022-09-01T12:13:32;23.40;99.90
23259;DHT22;11798;51.528;7.240;2022-09-01T12:15:59;23.30;99.90
23259;DHT22;11798;51.528;7.240;2022-09-01T12:18:27;23.40;99.90
23259;DHT22;11798;51.528;7.240;2022-09-01T12:20:53;23.70;99.90
23259;DHT22;11798;51.528;7.240;2022-09-01T12:23:24;23.80;99.90
23259;DHT22;11798;51.528;7.240;2022-09-01T12:25:54;23.70;99.90
23259;DHT22;11798;51.528;7.240;2022-09-01T12:28:23;23.70;99.90
23259;DHT22;11798;51.528;7.240;2022-09-01T12:30:50;23.60;99.90
23259;DHT22;11798;51.528;7.240;2022-09-01T12:33:17;23.70;99.90
23259;DHT22;11798;51.528;7.240;2022-09-01T12:35:44;23.70;99.90
23259;DHT22;11798;51.528;7.240;2022-09-01T12:40:44;23.70;99.90
23259;DHT22;11798;51.528;7.240;2022-09-01T12:43:10;23.70;99.90
23259;DHT22;11798;51.528;7.240;2022-09-01T12:45:50;23.80;99.90
23259;DHT22;11798;51.528;7.240;2022-09-01T12:48:23;23.60;99.90
23259;DHT22;11798;51.528;7.240;2022-09-01T12:50:49;23.60;99.90
23259;DHT22;11798;51.528;7.240;2022-09-01T12:53:16;23.60;99.90
23259;DHT22;11798;51.528;7.240;2022-09-01T12:55:52;23.60;99.90
23259;DHT22;11798;51.528;7.240;2022-09-01T12:58:20;23.70;99.90
23259;DHT22;11798;51.528;7.240;2022-09-01T13:03:22;23.70;99.90
23259;DHT22;11798;51.528;7.240;2022-09-01T13:05:51;23.70;99.90
23259;DHT22;11798;51.528;7.240;2022-09-01T13:08:21;23.80;99.90
23259;DHT22;11798;51.528;7.240;2022-09-01T13:10:49;23.70;99.90
23259;DHT22;11798;51.528;7.240;2022-09-01T13:13:15;23.80;99.90
23259;DHT22;11798;51.528;7.240;2022-09-01T13:15:42;23.80;99.90
23259;DHT22;11798;51.528;7.240;2022-09-01T13:18:07;23.90;99.90
23259;DHT22;11798;51.528;7.240;2022-09-01T13:20:33;23.90;99.90
23259;DHT22;11798;51.528;7.240;2022-09-01T13:22:59;23.90;99.90
23259;DHT22;11798;51.528;7.240;2022-09-01T13:25:25;23.80;99.90
23259;DHT22;11798;51.528;7.240;2022-09-01T13:27:51;23.80;99.90
23259;DHT22;11798;51.528;7.240;2022-09-01T13:30:18;23.80;99.90
23259;DHT22;11798;51.528;7.240;2022-09-01T13:32:44;23.70;99.90
23259;DHT22;11798;51.528;7.240;2022-09-01T13:35:11;23.80;99.90
23259;DHT22;11798;51.528;7.240;2022-09-01T13:37:36;23.80;99.90
23259;DHT22;11798;51.528;7.240;2022-09-01T13:40:02;23.90;99.90
23259;DHT22;11798;51.528;7.240;2022-09-01T13:42:28;23.90;99.90
23259;DHT22;11798;51.528;7.240;2022-09-01T13:44:54;23.80;99.90
23259;DHT22;11798;51.528;7.240;2022-09-01T13:47:19;23.70;99.90
23259;DHT22;11798;51.528;7.240;2022-09-01T13:49:45;23.60;99.90
23259;DHT22;11798;51.528;7.240;2022-09-01T13:52:11;23.70;99.90
23259;DHT22;11798;51.528;7.240;2022-09-01T13:54:37;23.70;99.90
23259;DHT22;11798;51.528;7.240;2022-09-01T13:57:02;23.70;99.90
23259;DHT22;11798;51.528;7.240;2022-09-01T13:59:28;23.70;99.90
23259;DHT22;11798;51.528;7.240;2022-09-01T14:01:54;23.70;99.90
23259;DHT22;11798;51.528;7.240;2022-09-01T14:04:20;23.70;99.90
23259;DHT22;11798;51.528;7.240;2022-09-01T14:06:47;23.60;99.90
23259;DHT22;11798;51.528;7.240;2022-09-01T14:09:13;23.60;99.90
23259;DHT22;11798;51.528;7.240;2022-09-01T14:11:39;23.70;99.90
23259;DHT22;11798;51.528;7.240;2022-09-01T14:14:05;23.70;99.90
23259;DHT22;11798;51.528;7.240;2022-09-01T14:16:30;23.70;99.90
23259;DHT22;11798;51.528;7.240;2022-09-01T14:18:56;23.60;99.90
23259;DHT22;11798;51.528;7.240;2022-09-01T14:21:24;23.60;99.90
23259;DHT22;11798;51.528;7.240;2022-09-01T14:23:50;23.60;99.90
23259;DHT22;11798;51.528;7.240;2022-09-01T14:26:15;23.60;99.90
23259;DHT22;11798;51.528;7.240;2022-09-01T14:28:41;23.60;99.90
23259;DHT22;11798;51.528;7.240;2022-09-01T14:31:12;23.60;99.90
23259;DHT22;11798;51.528;7.240;2022-09-01T14:33:38;23.60;99.90
23259;DHT22;11798;51.528;7.240;2022-09-01T14:36:05;23.60;99.90
23259;DHT22;11798;51.528;7.240;2022-09-01T14:38:31;23.60;99.90
23259;DHT22;11798;51.528;7.240;2022-09-01T14:40:56;23.70;99.90
23259;DHT22;11798;51.528;7.240;2022-09-01T14:43:22;23.60;99.90
23259;DHT22;11798;51.528;7.240;2022-09-01T14:45:48;23.70;99.90
23259;DHT22;11798;51.528;7.240;2022-09-01T14:48:15;23.70;99.90
23259;DHT22;11798;51.528;7.240;2022-09-01T14:50:41;23.70;99.90
23259;DHT22;11798;51.528;7.240;2022-09-01T14:53:07;23.80;99.90
23259;DHT22;11798;51.528;7.240;2022-09-01T14:55:33;23.80;99.90
23259;DHT22;11798;51.528;7.240;2022-09-01T14:57:58;23.90;99.90
23259;DHT22;11798;51.528;7.240;2022-09-01T15:00:25;24.10;99.90
23259;DHT22;11798;51.528;7.240;2022-09-01T15:02:51;24.20;99.90
23259;DHT22;11798;51.528;7.240;2022-09-01T15:05:16;24.30;99.90
23259;DHT22;11798;51.528;7.240;2022-09-01T15:07:42;24.50;99.90
23259;DHT22;11798;51.528;7.240;2022-09-01T15:10:09;24.60;99.90
23259;DHT22;11798;51.528;7.240;2022-09-01T15:12:34;24.90;99.90
23259;DHT22;11798;51.528;7.240;2022-09-01T15:15:04;25.00;99.90
23259;DHT22;11798;51.528;7.240;2022-09-01T15:17:30;25.00;99.90
23259;DHT22;11798;51.528;7.240;2022-09-01T15:19:55;25.00;99.90
23259;DHT22;11798;51.528;7.240;2022-09-01T15:22:40;25.20;99.90
23259;DHT22;11798;51.528;7.240;2022-09-01T15:25:06;25.50;99.90
23259;DHT22;11798;51.528;7.240;2022-09-01T15:27:32;25.60;99.90
23259;DHT22;11798;51.528;7.240;2022-09-01T15:29:57;25.70;99.90
23259;DHT22;11798;51.528;7.240;2022-09-01T15:32:23;25.90;99.90
23259;DHT22;11798;51.528;7.240;2022-09-01T15:34:48;26.10;99.90
23259;DHT22;11798;51.528;7.240;2022-09-01T15:37:14;26.30;99.90
23259;DHT22;11798;51.528;7.240;2022-09-01T15:39:39;26.40;99.90
23259;DHT22;11798;51.528;7.240;2022-09-01T15:42:05;26.50;99.90
23259;DHT22;11798;51.528;7.240;2022-09-01T15:44:30;26.70;99.90
23259;DHT22;11798;51.528;7.240;2022-09-01T15:46:57;26.70;99.90
23259;DHT22;11798;51.528;7.240;2022-09-01T15:49:22;26.90;99.90
23259;DHT22;11798;51.528;7.240;2022-09-01T15:51:48;27.30;99.90
23259;DHT22;11798;51.528;7.240;2022-09-01T15:54:15;27.30;99.90
23259;DHT22;11798;51.528;7.240;2022-09-01T15:56:41;27.30;99.90
23259;DHT22;11798;51.528;7.240;2022-09-01T15:59:07;27.40;99.90
23259;DHT22;11798;51.528;7.240;2022-09-01T16:01:34;27.50;99.90
23259;DHT22;11798;51.528;7.240;2022-09-01T16:04:00;28.20;99.90
23259;DHT22;11798;51.528;7.240;2022-09-01T16:06:26;28.30;99.90
23259;DHT22;11798;51.528;7.240;2022-09-01T16:08:52;27.30;99.90
23259;DHT22;11798;51.528;7.240;2022-09-01T16:11:19;26.90;99.90
23259;DHT22;11798;51.528;7.240;2022-09-01T16:13:45;26.40;99.90
23259;DHT22;11798;51.528;7.240;2022-09-01T16:18:57;25.70;99.90
23259;DHT22;11798;51.528;7.240;2022-09-01T16:23:56;25.20;99.90
23259;DHT22;11798;51.528;7.240;2022-09-01T16:26:26;25.10;99.90
23259;DHT22;11798;51.528;7.240;2022-09-01T16:28:54;24.90;99.90
23259;DHT22;11798;51.528;7.240;2022-09-01T16:31:24;24.80;99.90
23259;DHT22;11798;51.528;7.240;2022-09-01T16:33:52;24.60;99.90
23259;DHT22;11798;51.528;7.240;2022-09-01T16:36:39;24.40;99.90
23259;DHT22;11798;51.528;7.240;2022-09-01T16:39:15;24.30;99.90
23259;DHT22;11798;51.528;7.240;2022-09-01T16:44:13;23.90;99.90
23259;DHT22;11798;51.528;7.240;2022-09-01T16:52:00;23.60;99.90